createdAt,value
2023-01-05T00:01:11.563Z,76436.09
2023-01-05T00:03:38.978Z,76439.94
2023-01-05T00:06:09.808Z,76439.94
2023-01-05T00:08:40.213Z,76451.50
2023-01-05T00:11:31.123Z,76447.66
2023-01-05T00:14:24.437Z,76438.03
2023-01-05T00:17:09.902Z,76436.09
2023-01-05T00:19:55.289Z,76447.66
2023-01-05T00:22:34.788Z,76436.09
2023-01-05T00:25:04.790Z,76441.88
2023-01-05T00:27:36.809Z,76451.50
2023-01-05T00:30:04.743Z,76455.38
2023-01-05T00:32:31.398Z,76451.50
2023-01-05T00:34:58.974Z,76451.50
2023-01-05T00:37:28.622Z,76443.81
2023-01-05T00:39:55.302Z,76455.38
2023-01-05T00:42:22.679Z,76447.66
2023-01-05T00:44:49.313Z,76432.25
2023-01-05T00:47:16.051Z,76430.31
2023-01-05T00:49:43.226Z,76418.75
2023-01-05T00:52:09.894Z,76411.03
2023-01-05T00:54:36.511Z,76412.97
2023-01-05T00:57:03.500Z,76409.13
2023-01-05T00:59:30.798Z,76420.69
2023-01-05T01:01:57.637Z,76416.81
2023-01-05T01:04:24.577Z,76409.13
2023-01-05T01:06:51.211Z,76405.25
2023-01-05T01:09:18.522Z,76403.34
2023-01-05T01:11:46.106Z,76405.25
2023-01-05T01:14:13.901Z,76401.41
2023-01-05T01:16:42.220Z,76397.56
2023-01-05T01:19:13.649Z,76391.78
2023-01-05T01:21:40.468Z,76391.78
2023-01-05T01:24:07.466Z,76389.84
2023-01-05T01:26:34.182Z,76374.44
2023-01-05T01:29:01.483Z,76366.72
2023-01-05T01:31:28.149Z,76351.31
2023-01-05T01:33:54.734Z,76357.09
2023-01-05T01:36:21.363Z,76351.31
2023-01-05T01:38:48.001Z,76357.09
2023-01-05T01:41:15.281Z,76351.31
2023-01-05T01:43:51.050Z,76339.75
2023-01-05T01:46:21.519Z,76347.47
2023-01-05T01:49:00.580Z,76341.69
2023-01-05T01:51:34.472Z,76349.38
2023-01-05T01:54:05.286Z,76355.16
2023-01-05T01:56:50.026Z,76366.72
2023-01-05T01:59:17.530Z,76378.28
2023-01-05T02:01:44.622Z,76386.00
2023-01-05T02:04:12.305Z,76387.91
2023-01-05T02:06:39.952Z,76389.84
2023-01-05T02:09:07.000Z,76407.19
2023-01-05T02:11:41.121Z,76420.69
2023-01-05T02:14:17.619Z,76420.69
2023-01-05T02:17:02.493Z,76409.13
2023-01-05T02:19:38.527Z,76418.75
2023-01-05T02:22:50.096Z,76426.47
2023-01-05T02:25:35.554Z,76439.94
2023-01-05T02:28:08.733Z,76418.75
2023-01-05T02:31:05.669Z,76393.69
2023-01-05T02:34:08.399Z,76382.13
2023-01-05T02:36:53.936Z,76380.22
2023-01-05T02:39:34.998Z,76366.72
2023-01-05T02:42:13.838Z,76343.59
2023-01-05T02:44:41.962Z,76328.19
2023-01-05T02:47:28.480Z,76328.19
2023-01-05T02:50:05.469Z,76332.03
2023-01-05T02:52:51.128Z,76332.03
2023-01-05T02:55:24.217Z,76322.41
2023-01-05T02:57:59.541Z,76316.63
2023-01-05T03:00:48.412Z,76303.13
2023-01-05T03:03:18.986Z,76289.66
2023-01-05T03:05:58.968Z,76285.78
2023-01-05T03:08:33.149Z,76285.78
2023-01-05T03:11:27.025Z,76270.38
2023-01-05T03:14:19.424Z,76262.66
2023-01-05T03:16:51.095Z,76251.13
2023-01-05T03:19:39.709Z,76243.41
2023-01-05T03:22:39.227Z,76235.69
2023-01-05T03:25:31.539Z,76235.69
2023-01-05T03:28:20.933Z,76229.91
2023-01-05T03:31:32.254Z,76237.63
2023-01-05T03:34:35.976Z,76241.47
2023-01-05T03:37:10.156Z,76208.72
2023-01-05T03:39:42.702Z,76224.13
2023-01-05T03:42:10.743Z,76235.69
2023-01-05T03:44:44.588Z,76241.47
2023-01-05T03:47:15.061Z,76243.41
2023-01-05T03:49:43.525Z,76243.41
2023-01-05T03:52:10.272Z,76247.25
2023-01-05T03:54:40.572Z,76241.47
2023-01-05T03:57:07.668Z,76235.69
2023-01-05T03:59:34.333Z,76235.69
2023-01-05T04:02:03.126Z,76239.56
2023-01-05T04:04:30.773Z,76243.41
2023-01-05T04:06:58.928Z,76247.25
2023-01-05T04:09:25.583Z,76241.47
2023-01-05T04:11:52.451Z,76233.78
2023-01-05T04:14:19.394Z,76233.78
2023-01-05T04:16:46.171Z,76231.84
2023-01-05T04:19:18.432Z,76228.00
2023-01-05T04:21:45.383Z,76224.13
2023-01-05T04:24:13.207Z,76231.84
2023-01-05T04:26:43.349Z,76224.13
2023-01-05T04:29:11.814Z,76224.13
2023-01-05T04:31:40.004Z,76226.06
2023-01-05T04:34:07.800Z,76228.00
2023-01-05T04:36:35.152Z,76224.13
2023-01-05T04:39:02.030Z,76220.28
2023-01-05T04:41:30.159Z,76220.28
2023-01-05T04:43:58.251Z,76235.69
2023-01-05T04:46:25.675Z,76239.56
2023-01-05T04:48:54.858Z,76253.03
2023-01-05T04:51:22.085Z,76262.66
2023-01-05T04:53:48.739Z,76262.66
2023-01-05T04:56:18.533Z,76266.53
2023-01-05T04:58:46.339Z,76258.81
2023-01-05T05:01:13.153Z,76228.00
2023-01-05T05:03:41.905Z,76210.66
2023-01-05T05:06:11.386Z,76193.31
2023-01-05T05:08:38.251Z,76172.13
2023-01-05T05:11:05.621Z,76160.56
2023-01-05T05:13:35.085Z,76170.19
2023-01-05T05:16:02.805Z,76166.34
2023-01-05T05:18:31.029Z,76189.44
2023-01-05T05:20:58.106Z,76195.22
2023-01-05T05:23:29.776Z,76199.09
2023-01-05T05:25:57.987Z,76199.09
2023-01-05T05:28:28.374Z,76189.44
2023-01-05T05:30:56.610Z,76208.72
2023-01-05T05:33:24.529Z,76208.72
2023-01-05T05:35:51.217Z,76212.56
2023-01-05T05:38:17.935Z,76214.50
2023-01-05T05:40:44.632Z,76228.00
2023-01-05T05:43:11.278Z,76222.22
2023-01-05T05:45:37.915Z,76220.28
2023-01-05T05:48:05.687Z,76224.13
2023-01-05T05:50:33.066Z,76220.28
2023-01-05T05:53:05.640Z,76216.44
2023-01-05T05:55:33.579Z,76220.28
2023-01-05T05:58:00.485Z,76216.44
2023-01-05T06:00:27.445Z,76218.34
2023-01-05T06:02:54.251Z,76220.28
2023-01-05T06:05:21.124Z,76224.13
2023-01-05T06:07:47.793Z,76222.22
2023-01-05T06:10:14.564Z,76224.13
2023-01-05T06:12:41.342Z,76228.00
2023-01-05T06:15:08.625Z,76231.84
2023-01-05T06:17:35.249Z,76228.00
2023-01-05T06:20:02.137Z,76231.84
2023-01-05T06:22:28.733Z,76235.69
2023-01-05T06:24:55.473Z,76233.78
2023-01-05T06:27:22.145Z,76235.69
2023-01-05T06:29:48.741Z,76235.69
2023-01-05T06:32:15.342Z,76228.00
2023-01-05T06:34:41.943Z,76220.28
2023-01-05T06:37:08.571Z,76216.44
2023-01-05T06:39:35.230Z,76224.13
2023-01-05T06:42:01.913Z,76210.66
2023-01-05T06:44:28.478Z,76216.44
2023-01-05T06:46:55.057Z,76210.66
2023-01-05T06:49:21.750Z,76201.00
2023-01-05T06:51:48.418Z,76204.88
2023-01-05T06:54:15.211Z,76208.72
2023-01-05T06:56:41.913Z,76204.88
2023-01-05T06:59:12.728Z,76201.00
2023-01-05T07:01:39.351Z,76185.59
2023-01-05T07:04:06.217Z,76189.44
2023-01-05T07:06:34.896Z,76168.25
2023-01-05T07:09:01.661Z,76168.25
2023-01-05T07:11:28.298Z,76158.63
2023-01-05T07:13:54.932Z,76158.63
2023-01-05T07:16:21.553Z,76158.63
2023-01-05T07:18:48.206Z,76150.91
2023-01-05T07:21:14.859Z,76137.44
2023-01-05T07:23:41.533Z,76133.56
2023-01-05T07:26:09.540Z,76131.66
2023-01-05T07:28:37.869Z,76127.78
2023-01-05T07:31:07.422Z,76127.78
2023-01-05T07:33:39.584Z,76127.78
2023-01-05T07:36:07.609Z,76120.09
2023-01-05T07:38:34.537Z,76116.25
2023-01-05T07:41:02.425Z,76114.31
2023-01-05T07:43:29.339Z,76104.69
2023-01-05T07:46:00.430Z,76091.19
2023-01-05T07:48:27.533Z,76079.63
2023-01-05T07:51:05.641Z,76070.00
2023-01-05T07:53:41.650Z,76062.28
2023-01-05T07:56:12.176Z,76054.59
2023-01-05T07:58:39.224Z,76052.66
2023-01-05T08:01:12.422Z,76044.94
2023-01-05T08:03:39.413Z,76043.03
2023-01-05T08:06:14.503Z,76048.81
2023-01-05T08:08:41.741Z,76044.94
2023-01-05T08:11:10.306Z,76031.47
2023-01-05T08:13:55.635Z,76031.47
2023-01-05T08:16:22.949Z,76019.91
2023-01-05T08:18:49.982Z,76021.81
2023-01-05T08:21:16.712Z,76008.34
2023-01-05T08:23:45.878Z,76004.47
2023-01-05T08:26:17.844Z,76000.63
2023-01-05T08:28:45.101Z,75977.50
2023-01-05T08:31:27.968Z,75979.44
2023-01-05T08:33:57.958Z,75983.28
2023-01-05T08:36:24.764Z,75977.50
2023-01-05T08:38:52.667Z,75975.59
2023-01-05T08:41:24.976Z,75969.81
2023-01-05T08:43:52.555Z,75965.94
2023-01-05T08:46:23.531Z,75973.66
2023-01-05T08:48:51.307Z,75962.09
2023-01-05T08:51:18.627Z,75962.09
2023-01-05T08:53:45.765Z,75950.53
2023-01-05T08:56:12.469Z,75950.53
2023-01-05T08:58:40.231Z,75956.31
2023-01-05T09:01:12.216Z,75962.09
2023-01-05T09:03:39.393Z,75954.38
2023-01-05T09:06:09.494Z,75950.53
2023-01-05T09:08:36.308Z,75938.97
2023-01-05T09:11:15.255Z,75946.69
2023-01-05T09:13:45.328Z,75944.75
2023-01-05T09:16:14.046Z,75938.97
2023-01-05T09:18:42.515Z,75938.97
2023-01-05T09:21:10.527Z,75927.41
2023-01-05T09:23:38.462Z,75925.50
2023-01-05T09:26:06.769Z,75921.63
2023-01-05T09:28:35.577Z,75929.34
2023-01-05T09:31:28.393Z,75937.06
2023-01-05T09:33:58.289Z,75938.97
2023-01-05T09:36:28.245Z,75946.69
2023-01-05T09:38:58.279Z,76004.47
2023-01-05T09:41:32.743Z,76070.00
2023-01-05T09:44:04.200Z,76102.75
2023-01-05T09:46:37.107Z,76150.91
2023-01-05T09:49:06.885Z,76216.44
2023-01-05T09:51:34.492Z,76276.16
2023-01-05T09:54:02.306Z,76308.91
2023-01-05T09:59:31.497Z,76359.00
2023-01-05T10:02:09.922Z,76359.00
2023-01-05T10:04:36.969Z,76372.50
2023-01-05T10:07:07.829Z,76378.28
2023-01-05T10:09:39.306Z,76359.00
2023-01-05T10:12:27.914Z,76351.31
2023-01-05T10:15:00.946Z,76343.59
2023-01-05T10:17:41.654Z,76335.91
2023-01-05T10:20:21.868Z,76351.31
2023-01-05T10:23:22.463Z,76364.81
2023-01-05T10:25:59.446Z,76382.13
2023-01-05T10:28:51.656Z,76376.34
2023-01-05T10:31:48.844Z,76374.44
2023-01-05T10:34:43.518Z,76386.00
2023-01-05T10:37:28.694Z,76409.13
2023-01-05T10:39:58.514Z,76411.03
2023-01-05T10:42:59.077Z,76403.34
2023-01-05T10:45:29.918Z,76409.13
2023-01-05T10:47:58.255Z,76401.41
2023-01-05T10:50:36.203Z,76399.47
2023-01-05T10:53:18.649Z,76386.00
2023-01-05T10:55:56.694Z,76382.13
2023-01-05T10:58:29.790Z,76382.13
2023-01-05T11:01:27.999Z,76386.00
2023-01-05T11:04:33.455Z,76374.44
2023-01-05T11:07:03.849Z,76370.56
2023-01-05T11:09:30.532Z,76362.88
2023-01-05T11:12:00.031Z,76362.88
2023-01-05T11:14:29.384Z,76360.94
2023-01-05T11:17:03.224Z,76362.88
2023-01-05T11:19:35.696Z,76351.31
2023-01-05T11:22:02.858Z,76339.75
2023-01-05T11:24:34.893Z,76335.91
2023-01-05T11:27:24.552Z,76332.03
2023-01-05T11:30:16.095Z,76299.28
2023-01-05T11:32:46.803Z,76289.66
2023-01-05T11:35:38.140Z,76254.97
2023-01-05T11:38:05.881Z,76264.59
2023-01-05T11:40:35.990Z,76245.34
2023-01-05T11:43:11.701Z,76247.25
2023-01-05T11:45:46.377Z,76251.13
2023-01-05T11:48:20.346Z,76258.81
2023-01-05T11:50:50.451Z,76254.97
2023-01-05T11:53:24.979Z,76247.25
2023-01-05T11:56:08.400Z,76241.47
2023-01-05T11:58:43.189Z,76239.56
2023-01-05T12:01:24.063Z,76239.56
2023-01-05T12:04:20.730Z,76233.78
2023-01-05T12:06:50.171Z,76224.13
2023-01-05T12:09:23.194Z,76231.84
2023-01-05T12:11:49.817Z,76228.00
2023-01-05T12:14:38.865Z,76228.00
2023-01-05T12:17:14.802Z,76229.91
2023-01-05T12:20:10.884Z,76222.22
2023-01-05T12:22:53.917Z,76233.78
2023-01-05T12:25:47.226Z,76228.00
2023-01-05T12:28:42.325Z,76224.13
2023-01-05T12:34:31.114Z,76220.28
2023-01-05T12:37:17.949Z,76216.44
2023-01-05T12:40:03.679Z,76204.88
2023-01-05T12:42:48.571Z,76177.91
2023-01-05T12:45:45.017Z,76166.34
2023-01-05T12:48:38.750Z,76162.47
2023-01-05T12:51:05.523Z,76164.41
2023-01-05T12:53:50.662Z,76154.78
2023-01-05T12:56:27.571Z,76162.47
2023-01-05T12:59:21.833Z,76156.69
2023-01-05T13:02:15.055Z,76143.22
2023-01-05T13:04:58.861Z,76133.56
2023-01-05T13:07:47.965Z,76123.94
2023-01-05T13:10:29.743Z,76104.69
2023-01-05T13:13:13.495Z,76085.41
2023-01-05T13:15:54.496Z,76098.91
2023-01-05T13:18:24.912Z,76102.75
2023-01-05T13:21:06.870Z,76108.53
2023-01-05T13:23:45.215Z,76127.78
2023-01-05T13:26:16.275Z,76125.88
2023-01-05T13:28:46.372Z,76147.06
2023-01-05T13:31:50.885Z,76156.69
2023-01-05T13:34:41.931Z,76170.19
2023-01-05T13:37:35.026Z,76172.13
2023-01-05T13:40:39.351Z,76185.59
2023-01-05T13:43:30.453Z,76187.53
2023-01-05T13:46:30.765Z,76201.00
2023-01-05T13:49:16.331Z,76214.50
2023-01-05T13:52:06.709Z,76233.78
2023-01-05T13:55:00.840Z,76226.06
2023-01-05T13:57:35.367Z,76228.00
2023-01-05T14:00:11.211Z,76229.91
2023-01-05T14:02:45.349Z,76239.56
2023-01-05T14:05:30.289Z,76258.81
2023-01-05T14:07:59.684Z,76254.97
2023-01-05T14:10:31.877Z,76258.81
2023-01-05T14:12:58.674Z,76268.44
2023-01-05T14:15:40.794Z,76268.44
2023-01-05T14:18:09.421Z,76262.66
2023-01-05T14:20:56.323Z,76251.13
2023-01-05T14:23:24.098Z,76262.66
2023-01-05T14:25:57.392Z,76264.59
2023-01-05T14:28:35.878Z,76270.38
2023-01-05T14:31:11.163Z,76276.16
2023-01-05T14:33:52.704Z,76297.34
2023-01-05T14:36:33.899Z,76303.13
2023-01-05T14:39:05.360Z,76320.47
2023-01-05T14:41:32.029Z,76324.34
2023-01-05T14:44:03.505Z,76324.34
2023-01-05T14:46:46.574Z,76355.16
2023-01-05T14:49:25.346Z,76347.47
2023-01-05T14:51:57.529Z,76359.00
2023-01-05T14:55:05.633Z,76357.09
2023-01-05T14:57:38.183Z,76374.44
2023-01-05T15:00:07.905Z,76359.00
2023-01-05T15:03:03.809Z,76376.34
2023-01-05T15:05:34.562Z,76360.94
2023-01-05T15:08:13.925Z,76397.56
2023-01-05T15:11:16.227Z,76386.00
2023-01-05T15:14:38.283Z,76416.81
2023-01-05T15:17:16.749Z,76422.59
2023-01-05T15:19:55.553Z,76445.72
2023-01-05T15:22:40.954Z,76484.28
2023-01-05T15:25:32.226Z,76505.47
2023-01-05T15:28:17.412Z,76528.59
2023-01-05T15:30:44.138Z,76544.00
2023-01-05T15:33:24.511Z,76563.28
2023-01-05T15:35:57.792Z,76576.75
2023-01-05T15:38:27.959Z,76590.25
2023-01-05T15:40:59.953Z,76603.75
2023-01-05T15:43:27.233Z,76623.00
2023-01-05T15:45:54.487Z,76628.78
2023-01-05T15:48:39.972Z,76628.78
2023-01-05T15:51:07.893Z,76628.78
2023-01-05T15:53:40.884Z,76640.34
2023-01-05T15:56:25.810Z,76653.84
2023-01-05T15:58:52.514Z,76657.69
2023-01-05T16:01:19.192Z,76682.75
2023-01-05T16:03:48.619Z,76655.78
2023-01-05T16:06:20.213Z,76648.06
2023-01-05T16:08:50.443Z,76671.19
2023-01-05T16:11:36.002Z,76636.50
2023-01-05T16:14:15.016Z,76626.88
2023-01-05T16:16:59.290Z,76644.22
2023-01-05T16:19:35.283Z,76665.41
2023-01-05T16:22:11.438Z,76646.13
2023-01-05T16:24:56.574Z,76659.63
2023-01-05T16:27:23.465Z,76669.25
2023-01-05T16:29:50.160Z,76671.19
2023-01-05T16:32:37.290Z,76671.19
2023-01-05T16:35:41.906Z,76694.31
2023-01-05T16:38:10.307Z,76698.16
2023-01-05T16:40:40.919Z,76690.47
2023-01-05T16:43:32.672Z,76709.72
2023-01-05T16:46:28.952Z,76686.59
2023-01-05T16:48:58.449Z,76690.47
2023-01-05T16:51:36.122Z,76696.25
2023-01-05T16:54:11.269Z,76702.03
2023-01-05T16:56:37.846Z,76725.16
2023-01-05T16:59:39.342Z,76729.00
2023-01-05T17:02:39.746Z,76750.19
2023-01-05T17:05:07.549Z,76736.72
2023-01-05T17:07:38.179Z,76721.28
2023-01-05T17:10:07.017Z,76721.28
2023-01-05T17:12:33.970Z,76732.84
2023-01-05T17:15:05.448Z,76723.22
2023-01-05T17:17:32.180Z,76744.41
2023-01-05T17:19:58.824Z,76740.56
2023-01-05T17:22:25.675Z,76740.56
2023-01-05T17:24:52.700Z,76746.34
2023-01-05T17:27:19.354Z,76744.41
2023-01-05T17:29:46.740Z,76752.13
2023-01-05T17:32:13.456Z,76754.06
2023-01-05T17:34:42.373Z,76763.69
2023-01-05T17:37:16.136Z,76775.25
2023-01-05T17:39:43.194Z,76786.81
2023-01-05T17:42:41.898Z,76782.97
2023-01-05T17:45:23.385Z,76798.38
2023-01-05T17:47:51.046Z,76808.00
2023-01-05T17:50:20.918Z,76821.50
2023-01-05T17:52:47.649Z,76838.84
2023-01-05T17:55:14.685Z,76846.56
2023-01-05T17:57:42.329Z,76821.50
2023-01-05T18:00:12.486Z,76821.50
2023-01-05T18:02:40.015Z,76836.94
2023-01-05T18:05:07.643Z,76825.34
2023-01-05T18:07:35.268Z,76819.56
2023-01-05T18:10:02.451Z,76813.78
2023-01-05T18:12:29.117Z,76806.09
2023-01-05T18:14:55.806Z,76806.09
2023-01-05T18:17:23.011Z,76798.38
2023-01-05T18:19:49.811Z,76792.59
2023-01-05T18:22:17.224Z,76794.53
2023-01-05T18:24:44.573Z,76796.44
2023-01-05T18:27:12.247Z,76817.66
2023-01-05T18:29:40.787Z,76829.22
2023-01-05T18:32:08.214Z,76821.50
2023-01-05T18:34:35.452Z,76790.66
2023-01-05T18:37:06.653Z,76800.31
2023-01-05T18:39:37.537Z,76806.09
2023-01-05T18:42:04.340Z,76798.38
2023-01-05T18:44:33.267Z,76806.09
2023-01-05T18:46:59.880Z,76811.88
2023-01-05T18:49:26.511Z,76808.00
2023-01-05T18:51:53.263Z,76802.22
2023-01-05T18:54:20.342Z,76802.22
2023-01-05T18:56:49.744Z,76813.78
2023-01-05T18:59:16.843Z,76798.38
2023-01-05T19:01:43.711Z,76800.31
2023-01-05T19:04:11.936Z,76808.00
2023-01-05T19:06:39.049Z,76821.50
2023-01-05T19:09:08.990Z,76817.66
2023-01-05T19:11:37.511Z,76825.34
2023-01-05T19:14:06.039Z,76829.22
2023-01-05T19:16:35.496Z,76823.44
2023-01-05T19:19:08.336Z,76848.47
2023-01-05T19:21:38.252Z,76848.47
2023-01-05T19:24:07.489Z,76844.63
2023-01-05T19:26:36.256Z,76852.34
2023-01-05T19:29:04.057Z,76848.47
2023-01-05T19:31:30.845Z,76860.06
2023-01-05T19:34:00.394Z,76852.34
2023-01-05T19:36:32.392Z,76856.19
2023-01-05T19:39:01.246Z,76863.91
2023-01-05T19:41:28.855Z,76867.75
2023-01-05T19:43:56.877Z,76871.63
2023-01-05T19:46:26.955Z,76875.47
2023-01-05T19:48:53.736Z,76885.09
2023-01-05T19:51:25.979Z,76890.88
2023-01-05T19:53:58.385Z,76885.09
2023-01-05T19:56:36.888Z,76906.31
2023-01-05T19:59:06.471Z,76910.16
2023-01-05T20:01:35.954Z,76908.22
2023-01-05T20:04:03.355Z,76931.34
2023-01-05T20:06:35.824Z,76944.84
2023-01-05T20:09:10.627Z,76952.56
2023-01-05T20:11:40.205Z,76948.69
2023-01-05T20:14:08.149Z,76948.69
2023-01-05T20:16:35.467Z,76960.25
2023-01-05T20:19:05.305Z,76956.41
2023-01-05T20:21:35.237Z,76971.81
2023-01-05T20:24:03.248Z,76975.69
2023-01-05T20:26:31.079Z,76956.41
2023-01-05T20:29:00.735Z,76960.25
2023-01-05T20:31:29.280Z,76948.69
2023-01-05T20:33:58.828Z,76956.41
2023-01-05T20:36:27.968Z,76960.25
2023-01-05T20:38:56.108Z,76952.56
2023-01-05T20:41:25.908Z,76960.25
2023-01-05T20:43:53.397Z,76964.13
2023-01-05T20:46:23.448Z,76964.13
2023-01-05T20:48:51.267Z,76964.13
2023-01-05T20:51:18.986Z,76956.41
2023-01-05T20:53:45.802Z,76967.97
2023-01-05T20:56:16.305Z,76975.69
2023-01-05T20:58:47.748Z,76971.81
2023-01-05T21:01:15.170Z,76981.47
2023-01-05T21:03:42.333Z,76987.25
2023-01-05T21:06:14.489Z,76987.25
2023-01-05T21:08:48.790Z,76991.09
2023-01-05T21:11:18.246Z,76987.25
2023-01-05T21:13:46.721Z,76987.25
2023-01-05T21:16:21.809Z,77000.75
2023-01-05T21:18:49.508Z,77010.38
2023-01-05T21:21:18.356Z,77025.78
2023-01-05T21:23:47.048Z,77037.34
2023-01-05T21:26:14.625Z,77035.44
2023-01-05T21:28:43.459Z,77047.00
2023-01-05T21:31:15.486Z,77056.63
2023-01-05T21:33:42.349Z,77073.97
2023-01-05T21:36:14.912Z,77089.38
2023-01-05T21:39:02.435Z,77087.47
2023-01-05T21:41:50.387Z,77085.53
2023-01-05T21:44:18.139Z,77073.97
2023-01-05T21:46:45.384Z,77083.59
2023-01-05T21:49:14.369Z,77072.03
2023-01-05T21:52:00.187Z,77068.19
2023-01-05T21:54:45.351Z,77060.47
2023-01-05T21:57:12.318Z,77056.63
2023-01-05T21:59:39.596Z,77052.78
2023-01-05T22:02:06.705Z,77056.63
2023-01-05T22:04:33.436Z,77048.91
2023-01-05T22:07:00.036Z,77047.00
2023-01-05T22:09:26.774Z,77048.91
2023-01-05T22:11:53.373Z,77052.78
2023-01-05T22:14:20.046Z,77058.56
2023-01-05T22:16:46.824Z,77054.69
2023-01-05T22:19:13.480Z,77052.78
2023-01-05T22:21:40.128Z,77041.22
2023-01-05T22:24:08.931Z,77033.50
2023-01-05T22:26:35.723Z,77006.53
2023-01-05T22:29:04.418Z,76993.03
2023-01-05T22:31:32.465Z,76991.09
2023-01-05T22:34:00.636Z,76991.09
2023-01-05T22:36:29.164Z,76998.81
2023-01-05T22:38:56.580Z,76994.97
2023-01-05T22:41:25.338Z,76998.81
2023-01-05T22:43:52.113Z,77000.75
2023-01-05T22:46:22.453Z,77000.75
2023-01-05T22:48:51.307Z,77004.59
2023-01-05T22:51:27.222Z,76991.09
2023-01-05T22:53:54.574Z,76998.81
2023-01-05T22:56:22.665Z,77012.31
2023-01-05T22:58:49.347Z,77004.59
2023-01-05T23:01:34.787Z,77002.66
2023-01-05T23:04:03.086Z,77025.78
2023-01-05T23:06:30.550Z,77045.06
2023-01-05T23:08:58.105Z,77045.06
2023-01-05T23:11:30.918Z,77060.47
2023-01-05T23:13:59.624Z,77070.13
2023-01-05T23:16:27.132Z,77070.13
2023-01-05T23:18:54.241Z,77079.75
2023-01-05T23:21:22.761Z,77083.59
2023-01-05T23:23:51.663Z,77095.19
2023-01-05T23:26:18.420Z,77104.81
2023-01-05T23:28:45.980Z,77102.88
2023-01-05T23:31:14.643Z,77110.59
2023-01-05T23:33:42.725Z,77122.16
2023-01-05T23:36:11.289Z,77137.56
2023-01-05T23:38:38.359Z,77133.72
2023-01-05T23:41:08.223Z,77120.22
2023-01-05T23:43:37.975Z,77124.09
2023-01-05T23:46:07.567Z,77124.09
2023-01-05T23:48:36.086Z,77114.44
2023-01-05T23:51:04.563Z,77118.31
2023-01-05T23:53:31.620Z,77129.88
2023-01-05T23:56:25.882Z,77106.75
2023-01-05T23:59:02.743Z,77081.69
